Terminal Aerodrome Forecast
Issued by NWS

Home | Current Version | Previous Version | Text Only | Print | Product List | Glossary On
Versions: 1 2 3 4 5 6 7 8 9 10 11 12 13
000
FTUS43 KGRB 051720
TAFAUW
TAF
KAUW 051720Z 0518/0618 22010KT P6SM SCT040 BKN250
     FM060100 17004KT P6SM FEW050 BKN250
     FM060700 15004KT 6SM BR SCT035 BKN140 WS015/22035KT
      TEMPO 0608/0612 4SM BR
     FM061400 19012G18KT P6SM VCSH SCT025 OVC050
      TEMPO 0615/0618 2SM TSRA BR SCT009 OVC025CB=

USA.gov is the U.S. government's official web portal to all federal, state and local government web resources and services.